Time;durP1;ratioP1;P1;durP2;ratioP2;P2;SDS_P1;SDS_P2;PMS_P1;PMS_P2;Temp;Humidity;BMP_temperature;BMP_pressure;BME280_temperature;BME280_humidity;BME280_pressure;Samples;Min_cycle;Max_cycle;Signal;HPM_P1;HPM_P2
2021/10/05 00:04:24;;;;;;;32.45;22.40;;;;;;;11.54;90.40;99264.59;4427545;79;21458;-85
2021/10/05 00:10:26;;;;;;;28.32;19.15;;;;;;;11.74;90.61;99267.98;4439336;79;21022;-85
2021/10/05 00:16:28;;;;;;;30.35;20.70;;;;;;;11.71;90.36;99264.05;4421172;79;21468;-85
2021/10/05 00:22:29;;;;;;;29.20;20.17;;;;;;;11.79;90.82;99258.82;4426865;79;21406;-84
2021/10/05 00:28:31;;;;;;;30.82;21.85;;;;;;;11.74;90.86;99250.95;4420441;79;21308;-84
2021/10/05 00:34:33;;;;;;;30.97;21.75;;;;;;;11.65;90.92;99253.19;4420966;79;21482;-84
2021/10/05 00:40:34;;;;;;;33.53;21.60;;;;;;;11.60;90.98;99245.29;4423900;79;21006;-84
2021/10/05 00:46:36;;;;;;;31.87;21.68;;;;;;;11.54;90.82;99237.77;4420094;79;20999;-84
2021/10/05 00:52:38;;;;;;;31.57;21.48;;;;;;;11.51;91.48;99237.92;4330570;79;20991;-84
2021/10/05 00:58:40;;;;;;;27.15;18.05;;;;;;;11.52;91.21;99235.98;4314139;80;21015;-85
2021/10/05 01:04:43;;;;;;;31.50;20.48;;;;;;;11.57;92.20;99231.53;4316519;80;21035;-84
2021/10/05 01:10:44;;;;;;;30.80;19.30;;;;;;;11.67;92.27;99230.87;4311350;80;21054;-84
2021/10/05 01:16:47;;;;;;;31.93;22.07;;;;;;;11.68;92.07;99226.38;4311964;80;21026;-85
2021/10/05 01:22:48;;;;;;;30.27;20.97;;;;;;;11.68;91.76;99214.64;4313817;80;21496;-84
2021/10/05 01:28:50;;;;;;;26.95;18.48;;;;;;;11.56;91.55;99216.26;4318816;80;21043;-84
2021/10/05 01:34:52;;;;;;;31.05;21.87;;;;;;;11.42;91.71;99210.02;4314272;80;21035;-84
2021/10/05 01:40:53;;;;;;;29.65;17.73;;;;;;;11.38;92.04;99209.78;4317925;80;21565;-83
2021/10/05 01:46:55;;;;;;;36.20;21.50;;;;;;;11.25;91.87;99194.74;4318164;80;20988;-84
2021/10/05 01:52:56;;;;;;;36.00;21.97;;;;;;;11.18;91.77;99202.33;4397917;79;21503;-84
2021/10/05 01:58:57;;;;;;;35.40;22.87;;;;;;;11.09;91.81;99190.27;4416779;79;21478;-83
2021/10/05 02:04:58;;;;;;;29.15;18.98;;;;;;;11.07;92.13;99202.78;4424715;79;21569;-84
2021/10/05 02:11:00;;;;;;;35.68;22.82;;;;;;;11.03;92.25;99201.36;4415367;79;21526;-84
2021/10/05 02:17:01;;;;;;;34.05;22.45;;;;;;;10.90;91.81;99193.16;4421598;79;21082;-83
2021/10/05 02:23:03;;;;;;;32.45;20.00;;;;;;;10.81;92.04;99187.18;4414230;79;21019;-83
2021/10/05 02:29:05;;;;;;;32.55;21.60;;;;;;;10.72;92.19;99182.56;4415096;79;20956;-84
2021/10/05 02:35:07;;;;;;;30.02;21.65;;;;;;;10.66;92.38;99190.90;4422252;79;21000;-85
2021/10/05 02:41:09;;;;;;;27.90;19.00;;;;;;;10.60;92.69;99187.48;4409953;79;21136;-84
2021/10/05 02:47:10;;;;;;;26.77;18.12;;;;;;;10.53;92.62;99173.68;4406996;79;21537;-84
2021/10/05 02:53:11;;;;;;;32.58;21.62;;;;;;;10.55;93.23;99172.17;4372249;79;21057;-83
2021/10/05 02:59:14;;;;;;;33.90;20.82;;;;;;;10.58;92.73;99170.63;4361409;80;20997;-84
2021/10/05 03:05:16;;;;;;;30.70;19.23;;;;;;;10.55;93.11;99163.95;4375192;79;21343;-83
2021/10/05 03:11:18;;;;;;;31.10;20.80;;;;;;;10.55;92.67;99150.84;4352680;79;21012;-84
2021/10/05 03:17:20;;;;;;;32.33;19.82;;;;;;;10.44;92.60;99153.44;4263668;80;21099;-84
2021/10/05 03:23:21;;;;;;;34.13;21.02;;;;;;;10.34;92.62;99139.02;4365528;79;21106;-84
2021/10/05 03:29:22;;;;;;;33.42;21.00;;;;;;;10.28;92.93;99135.03;4361427;79;21051;-84
2021/10/05 03:35:23;;;;;;;27.30;19.15;;;;;;;10.21;93.09;99132.17;4347954;80;21037;-84
2021/10/05 03:41:26;;;;;;;31.55;20.62;;;;;;;10.22;93.42;99128.87;4350483;80;21005;-84
2021/10/05 03:47:27;;;;;;;33.20;21.45;;;;;;;10.20;93.33;99133.34;4356661;79;21098;-83
2021/10/05 03:53:29;;;;;;;29.15;19.73;;;;;;;10.13;93.34;99131.09;4326630;79;21038;-83
2021/10/05 03:59:30;;;;;;;37.63;22.60;;;;;;;10.23;93.76;99131.80;4320832;79;21046;-84
2021/10/05 04:05:31;;;;;;;35.28;23.50;;;;;;;10.20;93.53;99124.34;4316584;79;21034;-84
2021/10/05 04:11:36;;;;;;;29.55;20.97;;;;;;;10.24;93.96;99120.48;4331010;79;20992;-83
2021/10/05 04:17:37;;;;;;;41.00;22.73;;;;;;;10.26;94.50;99125.59;4326558;79;21026;-83
2021/10/05 04:23:38;;;;;;;37.58;24.47;;;;;;;10.27;94.43;99118.98;4340745;79;21532;-84
2021/10/05 04:29:41;;;;;;;36.42;22.32;;;;;;;10.30;94.41;99116.87;4339179;79;21525;-84
2021/10/05 04:35:42;;;;;;;30.43;21.37;;;;;;;10.30;94.83;99123.71;4327032;79;21075;-83
2021/10/05 04:41:44;;;;;;;36.70;21.45;;;;;;;10.32;94.95;99120.80;4334382;79;22199;-84
2021/10/05 04:47:45;;;;;;;36.25;23.75;;;;;;;10.29;94.37;99123.52;4325411;79;21048;-83
2021/10/05 04:53:46;;;;;;;44.35;28.38;;;;;;;10.24;94.72;99127.92;4318490;79;21003;-84
2021/10/05 04:59:48;;;;;;;44.27;25.02;;;;;;;10.24;94.99;99127.33;4314322;80;21563;-83
2021/10/05 05:05:50;;;;;;;31.97;20.08;;;;;;;10.24;95.46;99132.03;4318071;80;21038;-84
2021/10/05 05:11:51;;;;;;;40.80;26.15;;;;;;;10.25;94.89;99131.66;4313928;80;21027;-83
2021/10/05 05:17:52;;;;;;;42.90;25.88;;;;;;;10.20;94.93;99132.55;4316479;81;21030;-84
2021/10/05 05:23:54;;;;;;;34.98;23.65;;;;;;;10.14;95.15;99131.28;4316589;80;21026;-84
2021/10/05 05:29:55;;;;;;;37.13;26.10;;;;;;;10.18;95.64;99126.67;4315915;80;21464;-84
2021/10/05 05:35:57;;;;;;;43.98;27.20;;;;;;;10.26;95.88;99130.49;4323169;80;21023;-83
2021/10/05 05:41:59;;;;;;;39.30;26.70;;;;;;;10.36;96.19;99128.50;4320023;80;22139;-84
2021/10/05 05:48:02;;;;;;;42.88;28.05;;;;;;;10.47;96.64;99128.06;4318170;80;21054;-84
2021/10/05 05:54:03;;;;;;;45.83;27.82;;;;;;;10.60;96.69;99120.41;4314757;80;21077;-83
2021/10/05 06:00:06;;;;;;;44.40;28.92;;;;;;;10.75;97.08;99131.73;4244234;82;21595;-84
2021/10/05 06:06:11;;;;;;;39.15;28.27;;;;;;;11.06;97.47;99120.36;4312628;80;21034;-85
2021/10/05 06:12:17;;;;;;;38.45;23.90;;;;;;;11.53;97.79;99119.66;4270370;82;21023;-85
2021/10/05 06:18:16;;;;;;;36.53;21.87;;;;;;;12.08;97.72;99124.87;4274342;82;21071;-84
2021/10/05 06:24:17;;;;;;;32.70;21.25;;;;;;;12.44;97.39;99120.38;4320419;80;21768;-84
2021/10/05 06:30:19;;;;;;;27.93;19.73;;;;;;;12.76;97.26;99117.22;4315189;80;21031;-84
2021/10/05 06:36:20;;;;;;;34.33;20.05;;;;;;;12.99;97.24;99113.57;4245893;82;21015;-84
2021/10/05 06:42:22;;;;;;;28.60;18.87;;;;;;;13.21;96.92;99100.70;4317408;80;21010;-84
2021/10/05 06:48:23;;;;;;;32.38;19.32;;;;;;;13.44;96.83;99106.63;4313629;80;21078;-85
2021/10/05 06:54:25;;;;;;;34.18;20.32;;;;;;;13.62;96.84;99094.48;4251655;81;21115;-85
2021/10/05 07:00:28;;;;;;;30.12;19.52;;;;;;;13.85;96.48;99096.25;4434141;78;21013;-85
2021/10/05 07:06:30;;;;;;;24.77;17.57;;;;;;;14.09;96.63;99093.28;4421650;79;21001;-85
2021/10/05 07:12:31;;;;;;;23.35;15.83;;;;;;;14.34;96.24;99083.03;4404324;79;21038;-85
2021/10/05 07:18:34;;;;;;;23.67;15.75;;;;;;;14.62;96.59;99092.59;4422027;79;21514;-85
2021/10/05 07:24:35;;;;;;;26.25;16.77;;;;;;;14.99;96.42;99091.43;4335168;80;21054;-85
2021/10/05 07:30:36;;;;;;;20.05;14.40;;;;;;;15.30;96.08;99091.08;4259520;82;21024;-85
2021/10/05 07:36:37;;;;;;;21.40;14.87;;;;;;;15.79;95.88;99096.25;4312101;81;20999;-85
2021/10/05 07:42:39;;;;;;;21.55;13.72;;;;;;;16.18;95.34;99084.84;4312250;81;21030;-85
2021/10/05 07:48:40;;;;;;;17.77;11.85;;;;;;;16.55;94.95;99084.89;4313952;81;21019;-85
2021/10/05 07:54:42;;;;;;;17.48;12.28;;;;;;;16.85;94.58;99079.40;4271797;80;21059;-84
2021/10/05 08:00:44;;;;;;;18.65;11.83;;;;;;;17.15;94.17;99069.69;4274495;81;21897;-84
2021/10/05 08:06:45;;;;;;;17.27;11.25;;;;;;;17.48;93.37;99068.83;4280568;81;21046;-85
2021/10/05 08:12:46;;;;;;;20.72;11.88;;;;;;;17.77;92.99;99072.73;4276244;81;21018;-84
2021/10/05 08:18:48;;;;;;;13.68;9.48;;;;;;;18.11;92.38;99067.78;4405770;79;21540;-84
2021/10/05 08:24:49;;;;;;;13.85;8.38;;;;;;;18.49;92.14;99066.91;4398688;79;21093;-85
2021/10/05 08:30:50;;;;;;;9.43;6.92;;;;;;;18.91;88.60;99066.63;4311152;81;21514;-85
2021/10/05 08:36:51;;;;;;;15.05;8.35;;;;;;;19.71;88.95;99062.05;4260491;82;21043;-84
2021/10/05 08:42:52;;;;;;;11.45;8.58;;;;;;;20.52;88.22;99064.70;4260931;82;21079;-85
2021/10/05 08:48:54;;;;;;;14.15;9.00;;;;;;;21.44;87.04;99054.61;4256841;82;21039;-84
2021/10/05 08:54:55;;;;;;;11.10;8.30;;;;;;;21.89;86.13;99044.62;4186300;82;21975;-85
2021/10/05 09:01:13;;;;;;;10.60;7.87;;;;;;;22.57;84.62;99046.63;4249096;82;21042;-85
2021/10/05 09:07:23;;;;;;;13.75;7.70;;;;;;;23.26;83.38;99042.42;4392780;79;21023;-84
2021/10/05 09:13:32;;;;;;;10.53;7.45;;;;;;;23.82;81.65;99047.11;4315581;80;21007;-86
2021/10/05 09:36:26;;;;;;;12.58;7.05;;;;;;;25.68;76.13;99028.89;4646831;74;21913;-86
2021/10/05 09:42:32;;;;;;;11.65;6.87;;;;;;;25.98;74.59;99029.80;4544366;76;21000;-86
2021/10/05 09:48:33;;;;;;;;;;;;;;;26.46;73.06;99023.52;4535287;76;21035;-86
2021/10/05 09:54:34;;;;;;;9.38;6.30;;;;;;;26.81;71.74;99011.84;4541670;76;20103;-85
2021/10/05 10:00:40;;;;;;;9.58;6.22;;;;;;;26.77;70.48;99010.62;4548138;76;21474;-82
2021/10/05 10:06:42;;;;;;;11.12;6.25;;;;;;;26.83;68.47;99010.70;4527408;76;21445;-83
2021/10/05 10:12:56;;;;;;;7.62;5.90;;;;;;;27.15;67.38;99009.73;4509291;77;21120;-83
2021/10/05 10:18:58;;;;;;;7.50;5.17;;;;;;;27.39;65.87;98999.92;4498843;77;21029;-85
2021/10/05 10:25:00;;;;;;;9.08;4.95;;;;;;;27.87;63.98;98992.55;4509852;77;21430;-83
2021/10/05 10:31:10;;;;;;;9.90;5.42;;;;;;;27.39;56.55;98987.28;4502302;77;21029;-82
2021/10/05 10:37:18;;;;;;;8.03;5.47;;;;;;;27.27;58.53;98988.37;4506420;76;23079;-84
2021/10/05 10:43:24;;;;;;;10.65;5.03;;;;;;;26.48;52.67;98995.75;4507314;76;21072;-84
2021/10/05 10:49:25;;;;;;;10.05;4.80;;;;;;;26.45;55.58;98982.69;4502818;76;21092;-83
2021/10/05 10:55:34;;;;;;;5.83;4.75;;;;;;;26.28;54.25;98971.13;4494177;76;21039;-85
2021/10/05 11:01:43;;;;;;;6.25;5.45;;;;;;;26.07;53.25;98957.61;4506032;76;21051;-84
2021/10/05 11:07:44;;;;;;;7.60;5.40;;;;;;;26.09;52.43;98941.70;4488255;77;21040;-85
2021/10/05 11:13:46;;;;;;;7.12;5.37;;;;;;;25.99;53.77;98945.20;4485257;77;21530;-84
2021/10/05 11:19:48;;;;;;;11.05;5.72;;;;;;;25.85;53.25;98927.69;4511586;77;21048;-84
2021/10/05 11:25:56;;;;;;;9.80;6.25;;;;;;;25.79;54.17;98919.01;4506315;77;21046;-83
2021/10/05 11:32:02;;;;;;;11.68;5.95;;;;;;;25.69;54.68;98917.52;4494104;77;20974;-84
2021/10/05 11:38:03;;;;;;;9.33;6.10;;;;;;;25.59;53.60;98911.84;4464730;77;21542;-83
2021/10/05 11:44:18;;;;;;;7.50;5.67;;;;;;;25.39;54.47;98911.64;4476549;77;21549;-83
2021/10/05 11:50:19;;;;;;;6.78;5.65;;;;;;;25.09;54.88;98909.93;4463112;76;22245;-83
2021/10/05 11:56:23;;;;;;;11.22;6.33;;;;;;;25.09;55.42;98904.33;4459160;77;22094;-85
2021/10/05 12:02:25;;;;;;;7.75;5.83;;;;;;;24.97;55.30;98896.90;4471199;77;21070;-84
2021/10/05 12:08:26;;;;;;;11.80;6.67;;;;;;;24.84;55.57;98890.11;4471004;76;21050;-84
2021/10/05 12:14:36;;;;;;;11.88;6.58;;;;;;;24.71;55.83;98864.98;4464257;78;21042;-84
2021/10/05 12:20:38;;;;;;;11.68;6.70;;;;;;;24.71;55.83;98864.98;4478843;76;21125;-84
2021/10/05 12:26:51;;;;;;;7.47;6.03;;;;;;;24.63;54.47;98875.72;4457098;76;21803;-84
2021/10/05 12:32:56;;;;;;;7.50;5.72;;;;;;;24.56;56.27;98871.84;4470551;76;21066;-84
2021/10/05 12:39:13;;;;;;;9.43;6.80;;;;;;;24.56;56.57;98866.24;4536535;76;21077;-84
2021/10/05 12:45:20;;;;;;;5.95;5.35;;;;;;;24.53;56.36;98858.80;4541631;76;21016;-85
2021/10/05 12:51:25;;;;;;;10.23;6.20;;;;;;;24.57;52.40;98853.82;4548365;76;21008;-83
2021/10/05 12:57:26;;;;;;;6.65;4.97;;;;;;;24.57;53.65;98844.78;4543625;76;21031;-84
2021/10/05 13:03:28;;;;;;;5.80;4.12;;;;;;;24.54;48.90;98849.92;4558093;76;21778;-84
2021/10/05 13:09:29;;;;;;;4.95;3.55;;;;;;;24.47;50.00;98841.88;4555786;76;21018;-84
2021/10/05 13:15:31;;;;;;;6.20;3.40;;;;;;;24.40;47.63;98838.66;4535388;76;21054;-83
2021/10/05 13:21:33;;;;;;;6.17;3.98;;;;;;;24.40;46.44;98833.05;4557738;76;21572;-83
2021/10/05 13:27:34;;;;;;;5.03;2.80;;;;;;;24.39;44.85;98832.27;4540952;76;21059;-83
2021/10/05 13:33:35;;;;;;;5.03;3.77;;;;;;;24.38;42.48;98832.09;4547476;76;21004;-84
2021/10/05 13:39:36;;;;;;;4.37;3.15;;;;;;;24.34;42.88;98827.31;4541539;76;20996;-84
2021/10/05 13:45:38;;;;;;;4.17;3.35;;;;;;;24.23;41.65;98828.42;4552098;76;21015;-84
2021/10/05 13:51:40;;;;;;;3.58;2.75;;;;;;;24.16;41.17;98825.97;4544825;76;21090;-85
2021/10/05 13:57:41;;;;;;;4.90;3.27;;;;;;;24.15;40.46;98828.59;4556870;76;21008;-84
2021/10/05 14:03:43;;;;;;;5.47;3.27;;;;;;;23.96;42.38;98827.08;4552730;76;21067;-85
2021/10/05 14:09:45;;;;;;;5.90;3.40;;;;;;;23.93;41.77;98830.78;4558998;76;20978;-84
2021/10/05 14:15:46;;;;;;;5.55;3.30;;;;;;;23.85;42.36;98825.36;4531479;76;21015;-83
2021/10/05 14:21:47;;;;;;;5.42;3.90;;;;;;;23.83;42.62;98834.85;4538632;76;21035;-83
2021/10/05 14:27:49;;;;;;;5.17;3.50;;;;;;;23.73;43.26;98843.08;4529979;76;21068;-84
2021/10/05 14:33:51;;;;;;;4.83;4.10;;;;;;;23.62;43.17;98838.58;4515639;76;21022;-83
2021/10/05 14:39:53;;;;;;;5.22;3.87;;;;;;;23.52;43.26;98827.27;4460761;77;20975;-85
2021/10/05 14:45:55;;;;;;;5.55;3.87;;;;;;;23.27;43.76;98833.75;4468065;77;20999;-84
2021/10/05 14:51:56;;;;;;;6.90;3.55;;;;;;;22.92;45.67;98820.63;4472582;77;21544;-83
2021/10/05 14:57:57;;;;;;;6.47;4.03;;;;;;;22.42;46.53;98816.86;4465367;76;21528;-84
2021/10/05 15:04:00;;;;;;;7.55;4.17;;;;;;;22.02;47.51;98804.89;4477986;76;21089;-84
2021/10/05 15:10:04;;;;;;;6.53;4.40;;;;;;;21.82;48.50;98807.22;4485134;76;21056;-84
2021/10/05 15:16:05;;;;;;;12.78;6.33;;;;;;;21.56;49.06;98805.92;4466861;76;21046;-84
2021/10/05 15:22:06;;;;;;;10.60;6.55;;;;;;;21.41;50.17;98818.80;4471606;76;21538;-84
2021/10/05 15:28:07;;;;;;;17.45;8.18;;;;;;;21.19;50.79;98813.81;4471165;76;21077;-85
2021/10/05 15:34:09;;;;;;;16.10;6.20;;;;;;;20.98;51.70;98820.72;4500855;76;21042;-85
2021/10/05 15:40:18;;;;;;;10.63;6.35;;;;;;;20.85;52.56;98822.70;4500318;76;21558;-85
2021/10/05 15:46:19;;;;;;;10.13;5.65;;;;;;;20.74;53.17;98826.45;4448222;77;21019;-85
2021/10/05 15:52:44;;;;;;;11.60;6.05;;;;;;;20.61;53.62;98827.09;4467627;77;21617;-85
2021/10/05 15:58:30;;;;;;;10.58;5.78;;;;;;;20.33;54.29;98838.46;4457251;77;21026;-84
2021/10/05 16:04:31;;;;;;;21.73;9.20;;;;;;;20.15;55.42;98851.49;4462509;77;21040;-84
2021/10/05 16:10:33;;;;;;;20.48;8.83;;;;;;;19.87;56.19;98853.67;4462704;77;21003;-85
2021/10/05 16:16:34;;;;;;;14.70;7.97;;;;;;;19.75;58.26;98840.54;4476891;77;21033;-86
2021/10/05 16:22:37;;;;;;;19.67;10.55;;;;;;;19.72;57.04;98854.52;4482198;77;20988;-85
2021/10/05 16:28:38;;;;;;;13.25;7.53;;;;;;;19.79;55.46;98848.78;4464614;77;20925;-84
2021/10/05 16:34:44;;;;;;;13.20;8.10;;;;;;;19.93;53.56;98842.81;4449041;77;21039;-84
2021/10/05 16:40:45;;;;;;;17.93;8.40;;;;;;;19.93;53.13;98840.83;4416712;78;21468;-85
2021/10/05 16:46:47;;;;;;;16.52;9.65;;;;;;;19.91;52.79;98846.64;4423183;79;21076;-84
2021/10/05 16:52:50;;;;;;;13.78;8.68;;;;;;;19.82;53.06;98857.02;4418041;79;20982;-85
2021/10/05 16:58:51;;;;;;;21.35;10.53;;;;;;;19.62;53.57;98872.27;4421225;78;21067;-85
2021/10/05 17:04:53;;;;;;;24.67;13.53;;;;;;;19.38;54.09;98883.41;4418634;78;21104;-85
2021/10/05 17:10:56;;;;;;;18.92;10.32;;;;;;;19.10;54.51;98875.78;4425127;78;21515;-85
2021/10/05 17:16:58;;;;;;;18.95;9.88;;;;;;;18.74;55.36;98882.16;4421427;79;21017;-85
2021/10/05 17:22:59;;;;;;;16.10;9.80;;;;;;;18.45;55.90;98895.13;4422370;78;20986;-85
2021/10/05 17:29:05;;;;;;;16.93;10.40;;;;;;;18.14;56.66;98893.00;4418989;78;21000;-84
2021/10/05 17:35:09;;;;;;;26.70;15.53;;;;;;;17.76;58.09;98885.65;4429668;78;21052;-86
2021/10/05 17:41:11;;;;;;;19.82;12.60;;;;;;;17.95;57.27;98891.80;4428087;78;21044;-85
2021/10/05 17:47:17;;;;;;;14.85;8.70;;;;;;;18.45;54.47;98885.42;4435881;78;21075;-86
2021/10/05 17:53:18;;;;;;;11.28;5.75;;;;;;;18.76;53.45;98890.08;4423125;78;21044;-86
2021/10/05 17:59:21;;;;;;;9.20;5.87;;;;;;;18.88;52.51;98886.62;4435513;77;21055;-86
2021/10/05 18:05:30;;;;;;;9.80;5.70;;;;;;;18.90;52.27;98877.27;4442939;77;21031;-85
2021/10/05 18:11:33;;;;;;;9.90;6.58;;;;;;;18.82;52.35;98877.86;4465350;77;21063;-86
2021/10/05 18:17:36;;;;;;;10.10;6.08;;;;;;;18.72;52.63;98885.21;4328919;79;21012;-87
2021/10/05 18:23:40;;;;;;;9.33;6.08;;;;;;;18.62;52.92;98886.25;4449734;77;21027;-87
2021/10/05 18:29:41;;;;;;;11.70;5.95;;;;;;;18.52;53.09;98900.52;4458332;77;21050;-87
2021/10/05 18:35:45;;;;;;;7.67;5.80;;;;;;;18.49;53.24;98893.66;4448597;77;21065;-85
2021/10/05 18:41:46;;;;;;;11.35;6.50;;;;;;;18.48;53.22;98893.47;4465179;77;21503;-85
2021/10/05 18:47:48;;;;;;;9.68;6.30;;;;;;;18.46;53.10;98886.22;4460704;77;20998;-84
2021/10/05 18:53:49;;;;;;;7.83;6.33;;;;;;;18.46;53.21;98878.66;4468104;77;21062;-84
2021/10/05 18:59:50;;;;;;;10.28;6.20;;;;;;;18.37;53.62;98885.37;4449308;77;21474;-84
2021/10/05 19:05:52;;;;;;;8.93;6.62;;;;;;;18.15;54.14;98903.65;4354789;79;21072;-84
2021/10/05 19:11:53;;;;;;;12.25;6.62;;;;;;;17.75;54.84;98916.53;4368080;79;20981;-83
2021/10/05 19:18:00;;;;;;;11.08;7.12;;;;;;;17.42;55.57;98918.88;4388620;79;20978;-84
2021/10/05 19:24:03;;;;;;;13.08;7.55;;;;;;;17.12;56.19;98916.42;4358087;80;21039;-86
2021/10/05 19:30:06;;;;;;;15.48;8.38;;;;;;;16.81;57.24;98907.25;4349500;80;21056;-84
2021/10/05 19:36:08;;;;;;;14.30;7.50;;;;;;;16.63;57.97;98903.98;4321058;80;21148;-84
2021/10/05 19:42:09;;;;;;;13.90;10.75;;;;;;;16.38;58.31;98909.03;4293977;80;21126;-83
2021/10/05 19:48:10;;;;;;;12.07;8.30;;;;;;;16.36;58.61;98918.33;4297406;80;21147;-85
2021/10/05 19:54:12;;;;;;;11.93;7.25;;;;;;;16.07;59.07;98924.04;4437842;78;21717;-84
2021/10/05 20:00:19;;;;;;;13.30;7.55;;;;;;;15.92;60.26;98919.86;4450858;78;21036;-84
2021/10/05 20:06:24;;;;;;;13.20;8.95;;;;;;;15.81;61.04;98913.67;4413076;78;21064;-85
2021/10/05 20:12:25;;;;;;;11.50;7.42;;;;;;;15.88;61.24;98904.71;4448699;78;20975;-84
2021/10/05 20:18:30;;;;;;;10.43;7.35;;;;;;;15.91;62.08;98912.16;4433752;78;21068;-83
2021/10/05 20:24:31;;;;;;;12.25;7.20;;;;;;;15.84;62.76;98915.61;4443846;78;21022;-84
2021/10/05 20:30:35;;;;;;;14.10;7.58;;;;;;;15.50;62.77;98921.86;4320086;78;10000368;-84
2021/10/05 20:36:36;;;;;;;11.33;7.60;;;;;;;15.31;63.54;98921.05;4427349;78;21059;-85
2021/10/05 20:42:38;;;;;;;11.45;7.53;;;;;;;15.03;63.61;98922.67;4423215;78;21029;-84
2021/10/05 20:48:39;;;;;;;16.40;8.65;;;;;;;15.04;64.51;98926.20;4427336;78;20987;-83
2021/10/05 20:54:40;;;;;;;14.13;8.93;;;;;;;14.83;64.51;98905.70;4322211;80;21013;-83
2021/10/05 21:00:41;;;;;;;17.57;8.75;;;;;;;14.64;64.66;98911.15;4433266;79;21557;-83
2021/10/05 21:06:43;;;;;;;14.15;8.15;;;;;;;14.22;66.18;98905.83;4312969;80;21668;-84
2021/10/05 21:12:45;;;;;;;14.83;9.33;;;;;;;14.01;66.72;98899.05;4424299;79;21019;-84
2021/10/05 21:18:46;;;;;;;14.13;9.05;;;;;;;13.86;67.54;98897.52;4420480;79;21008;-84
2021/10/05 21:24:47;;;;;;;14.90;8.85;;;;;;;13.61;67.44;98896.81;4423540;79;21566;-84
2021/10/05 21:30:49;;;;;;;13.48;9.58;;;;;;;13.45;67.90;98908.86;4411611;79;21026;-84
2021/10/05 21:36:51;;;;;;;17.45;9.70;;;;;;;13.36;68.39;98904.36;4316707;79;21038;-84
2021/10/05 21:42:52;;;;;;;15.50;9.10;;;;;;;13.30;68.69;98907.28;4353355;79;21006;-84
2021/10/05 21:48:54;;;;;;;14.98;9.18;;;;;;;13.25;69.50;98918.09;4304010;80;21527;-84
2021/10/05 21:54:55;;;;;;;15.30;10.68;;;;;;;13.12;70.06;98907.91;4320806;80;21048;-84
2021/10/05 22:00:56;;;;;;;13.45;9.90;;;;;;;13.09;70.45;98901.83;4451760;77;20981;-83
2021/10/05 22:06:58;;;;;;;16.52;10.38;;;;;;;12.96;70.31;98907.48;4444836;77;21662;-83
2021/10/05 22:12:59;;;;;;;16.07;10.68;;;;;;;12.68;70.85;98918.63;4446797;77;21055;-85
2021/10/05 22:19:02;;;;;;;17.02;11.05;;;;;;;12.62;71.24;98917.45;4421701;77;21035;-85
2021/10/05 22:25:04;;;;;;;18.42;11.22;;;;;;;12.50;76.32;98903.30;4437269;77;21050;-85
2021/10/05 22:31:06;;;;;;;15.38;10.08;;;;;;;12.46;73.49;98905.27;4440804;77;21039;-85
2021/10/05 22:37:07;;;;;;;13.08;9.85;;;;;;;12.42;74.00;98936.03;4469207;76;21061;-85
2021/10/05 22:43:09;;;;;;;16.77;11.25;;;;;;;12.61;73.55;98949.42;4460812;77;21504;-85
2021/10/05 22:49:12;;;;;;;13.83;9.00;;;;;;;12.50;75.66;98953.52;4449428;77;21023;-84
2021/10/05 22:55:14;;;;;;;16.62;10.30;;;;;;;12.68;75.44;98962.39;4467860;77;21638;-85
2021/10/05 23:01:15;;;;;;;17.30;10.78;;;;;;;12.60;74.69;98962.96;4451186;77;21053;-84
2021/10/05 23:07:17;;;;;;;17.52;10.58;;;;;;;12.42;74.83;98986.81;4461902;77;20982;-84
2021/10/05 23:13:18;;;;;;;16.60;10.13;;;;;;;12.32;75.35;98984.84;4485402;77;21034;-85
2021/10/05 23:19:21;;;;;;;19.95;11.03;;;;;;;12.25;75.56;98971.87;4474226;77;21479;-84
2021/10/05 23:25:23;;;;;;;12.03;8.25;;;;;;;12.22;75.75;98964.98;4476626;77;21011;-84
2021/10/05 23:31:24;;;;;;;27.13;11.05;;;;;;;12.10;76.63;98983.17;4470948;77;21097;-84
2021/10/05 23:37:26;;;;;;;17.52;10.05;;;;;;;12.26;76.92;98993.25;4430759;77;21038;-85
2021/10/05 23:43:27;;;;;;;16.35;10.28;;;;;;;12.20;77.19;98987.94;4395510;78;20979;-84
2021/10/05 23:49:28;;;;;;;12.15;9.40;;;;;;;12.11;77.88;99003.36;4389528;77;21570;-84
2021/10/05 23:55:30;;;;;;;17.57;10.35;;;;;;;12.23;77.84;98996.16;4404021;78;21588;-85
